Time;durP1;ratioP1;P1;durP2;ratioP2;P2;SDS_P1;SDS_P2;PMS_P1;PMS_P2;Temp;Humidity;BMP_temperature;BMP_pressure;BME280_temperature;BME280_humidity;BME280_pressure;Samples;Min_cycle;Max_cycle;Signal;HPM_P1;HPM_P2
2022/02/24 00:02:21;;;;;;;18.10;14.00;;;;;;;;;;4983507;28;20384;-63
2022/02/24 00:04:47;;;;;;;18.17;13.53;;;;;;;;;;4972656;28;20051;-62
2022/02/24 00:07:13;;;;;;;17.80;13.53;;;;;;;;;;4982157;28;20056;-62
2022/02/24 00:09:39;;;;;;;18.17;14.00;;;;;;;;;;4988856;28;20392;-62
2022/02/24 00:12:06;;;;;;;18.60;13.27;;;;;;;;;;4986489;28;20042;-63
2022/02/24 00:14:32;;;;;;;16.47;12.27;;;;;;;;;;4991224;28;20076;-63
2022/02/24 00:16:58;;;;;;;16.50;11.93;;;;;;;;;;4988474;28;20043;-63
2022/02/24 00:19:25;;;;;;;15.80;12.27;;;;;;;;;;4975208;28;20431;-62
2022/02/24 00:21:51;;;;;;;17.63;12.67;;;;;;;;;;4990372;28;20131;-62
2022/02/24 00:24:17;;;;;;;16.07;12.33;;;;;;;;;;4989564;28;20081;-63
2022/02/24 00:26:43;;;;;;;15.77;12.90;;;;;;;;;;4972949;28;20389;-63
2022/02/24 00:29:09;;;;;;;14.47;10.73;;;;;;;;;;4991567;28;20034;-62
2022/02/24 00:31:35;;;;;;;17.67;12.83;;;;;;;;;;4991434;28;20091;-62
2022/02/24 00:34:01;;;;;;;15.70;12.00;;;;;;;;;;4972546;28;20022;-62
2022/02/24 00:36:27;;;;;;;17.20;12.97;;;;;;;;;;4978655;28;20091;-62
2022/02/24 00:38:53;;;;;;;19.23;12.70;;;;;;;;;;4985724;28;20029;-62
2022/02/24 00:41:19;;;;;;;16.80;12.20;;;;;;;;;;4989791;28;20488;-62
2022/02/24 00:43:45;;;;;;;17.53;12.67;;;;;;;;;;4987427;28;20077;-62
2022/02/24 00:46:11;;;;;;;17.07;11.80;;;;;;;;;;4991299;28;20058;-62
2022/02/24 00:48:37;;;;;;;18.57;13.13;;;;;;;;;;4988556;28;20029;-62
2022/02/24 00:51:04;;;;;;;17.83;13.00;;;;;;;;;;4990528;28;20384;-62
2022/02/24 00:53:30;;;;;;;19.30;13.67;;;;;;;;;;4989466;28;20034;-62
2022/02/24 00:55:56;;;;;;;16.93;12.60;;;;;;;;;;4991075;28;20026;-62
2022/02/24 00:58:26;;;;;;;19.90;13.30;;;;;;;;;;4990398;28;20041;-62
2022/02/24 01:00:52;;;;;;;17.67;12.50;;;;;;;;;;4992128;28;20038;-62
2022/02/24 01:03:18;;;;;;;18.77;12.57;;;;;;;;;;4978505;28;20027;-62
2022/02/24 01:05:44;;;;;;;16.00;11.37;;;;;;;;;;4974257;28;20049;-62
2022/02/24 01:08:11;;;;;;;16.43;12.67;;;;;;;;;;4981330;28;20035;-62
2022/02/24 01:10:37;;;;;;;14.82;11.38;;;;;;;;;;4985804;28;20476;-62
2022/02/24 01:13:04;;;;;;;15.87;11.07;;;;;;;;;;4987532;28;20033;-62
2022/02/24 01:15:30;;;;;;;19.63;12.07;;;;;;;;;;4991210;28;20023;-62
2022/02/24 01:17:56;;;;;;;16.47;12.73;;;;;;;;;;4983910;28;20471;-62
2022/02/24 01:20:22;;;;;;;16.17;12.47;;;;;;;;;;4988688;28;20376;-62
2022/02/24 01:22:49;;;;;;;15.37;12.23;;;;;;;;;;4981782;28;20037;-62
2022/02/24 01:25:19;;;;;;;14.73;11.70;;;;;;;;;;4971648;28;20538;-62
2022/02/24 01:27:46;;;;;;;19.70;12.33;;;;;;;;;;4982060;28;20034;-61
2022/02/24 01:30:12;;;;;;;14.57;11.23;;;;;;;;;;4989668;28;20441;-61
2022/02/24 01:32:38;;;;;;;18.47;12.07;;;;;;;;;;4984517;28;20041;-62
2022/02/24 01:35:04;;;;;;;18.93;13.60;;;;;;;;;;4989954;28;20392;-62
2022/02/24 01:37:31;;;;;;;18.63;13.50;;;;;;;;;;4985599;28;20027;-62
2022/02/24 01:39:57;;;;;;;16.20;12.37;;;;;;;;;;4990533;28;20029;-62
2022/02/24 01:42:23;;;;;;;18.63;13.43;;;;;;;;;;4989865;28;20034;-61
2022/02/24 01:44:49;;;;;;;17.73;13.13;;;;;;;;;;4980251;28;20399;-61
2022/02/24 01:47:15;;;;;;;16.83;13.27;;;;;;;;;;4982165;28;20522;-63
2022/02/24 01:49:42;;;;;;;18.03;13.40;;;;;;;;;;4979346;28;20057;-62
2022/02/24 01:52:10;;;;;;;18.27;13.43;;;;;;;;;;4984560;28;20053;-62
2022/02/24 01:54:36;;;;;;;16.17;12.67;;;;;;;;;;4975522;28;20023;-62
2022/02/24 01:57:03;;;;;;;16.83;12.37;;;;;;;;;;4989583;28;20029;-62
2022/02/24 01:59:29;;;;;;;15.97;12.80;;;;;;;;;;4989053;28;20064;-62
2022/02/24 02:01:56;;;;;;;18.67;12.63;;;;;;;;;;4987207;28;20030;-62
2022/02/24 02:04:23;;;;;;;20.10;13.33;;;;;;;;;;4973750;28;20055;-62
2022/02/24 02:06:49;;;;;;;18.53;13.67;;;;;;;;;;4990017;28;20403;-62
2022/02/24 02:09:15;;;;;;;16.20;12.13;;;;;;;;;;4988153;28;20038;-63
2022/02/24 02:11:41;;;;;;;21.03;11.93;;;;;;;;;;4971288;28;20038;-62
2022/02/24 02:14:11;;;;;;;16.93;12.47;;;;;;;;;;4971099;28;20035;-62
2022/02/24 02:16:42;;;;;;;21.23;12.93;;;;;;;;;;4979243;28;20084;-62
2022/02/24 02:19:08;;;;;;;20.77;13.40;;;;;;;;;;4988118;28;20023;-62
2022/02/24 02:21:34;;;;;;;24.73;12.93;;;;;;;;;;4977779;28;20504;-62
2022/02/24 02:24:00;;;;;;;16.47;12.57;;;;;;;;;;4985009;28;20018;-62
2022/02/24 02:26:26;;;;;;;17.80;12.43;;;;;;;;;;4976257;28;20027;-62
2022/02/24 02:28:52;;;;;;;18.03;12.63;;;;;;;;;;4985787;28;20437;-62
2022/02/24 02:31:22;;;;;;;17.27;12.20;;;;;;;;;;4987199;28;20091;-62
2022/02/24 02:33:48;;;;;;;18.47;13.50;;;;;;;;;;4992587;28;20026;-62
2022/02/24 02:36:14;;;;;;;19.30;12.90;;;;;;;;;;4991129;28;20041;-62
2022/02/24 02:38:40;;;;;;;17.10;13.10;;;;;;;;;;4980603;28;20019;-62
2022/02/24 02:41:06;;;;;;;18.20;13.63;;;;;;;;;;4972917;28;20027;-62
2022/02/24 02:43:32;;;;;;;17.60;12.57;;;;;;;;;;4979059;28;20019;-62
2022/02/24 02:45:59;;;;;;;16.87;13.13;;;;;;;;;;4991303;28;20506;-63
2022/02/24 02:48:25;;;;;;;17.47;13.30;;;;;;;;;;4984159;28;20027;-62
2022/02/24 02:50:51;;;;;;;19.13;12.73;;;;;;;;;;4972666;28;20027;-62
2022/02/24 02:53:17;;;;;;;16.63;13.03;;;;;;;;;;4983330;28;20027;-62
2022/02/24 02:55:43;;;;;;;19.97;14.00;;;;;;;;;;4992158;28;20036;-62
2022/02/24 02:58:09;;;;;;;22.13;13.47;;;;;;;;;;4989148;28;20038;-62
2022/02/24 03:00:35;;;;;;;18.73;12.13;;;;;;;;;;4993055;28;20022;-62
2022/02/24 03:03:01;;;;;;;19.63;13.00;;;;;;;;;;4991198;28;20023;-62
2022/02/24 03:05:27;;;;;;;18.10;12.83;;;;;;;;;;4992407;28;20058;-62
2022/02/24 03:07:53;;;;;;;17.50;12.67;;;;;;;;;;4991858;28;20030;-62
2022/02/24 03:10:19;;;;;;;17.63;12.80;;;;;;;;;;4992635;28;20030;-62
2022/02/24 03:12:45;;;;;;;18.97;11.87;;;;;;;;;;4990352;28;20084;-62
2022/02/24 03:15:15;;;;;;;16.67;12.27;;;;;;;;;;4987527;28;20030;-62
2022/02/24 03:17:42;;;;;;;17.47;12.60;;;;;;;;;;4989528;28;20468;-62
2022/02/24 03:20:08;;;;;;;20.40;11.73;;;;;;;;;;4989728;28;20488;-63
2022/02/24 03:22:34;;;;;;;18.53;12.53;;;;;;;;;;4990479;28;20034;-62
2022/02/24 03:25:00;;;;;;;16.07;12.77;;;;;;;;;;4992634;28;20030;-62
2022/02/24 03:27:27;;;;;;;18.63;11.97;;;;;;;;;;4982782;28;20442;-62
2022/02/24 03:29:53;;;;;;;18.17;12.13;;;;;;;;;;4991330;28;20357;-62
2022/02/24 03:32:19;;;;;;;15.70;11.83;;;;;;;;;;4993029;28;20174;-62
2022/02/24 03:34:45;;;;;;;16.70;12.20;;;;;;;;;;4989925;28;20115;-62
2022/02/24 03:37:11;;;;;;;16.17;11.17;;;;;;;;;;4989669;28;20037;-62
2022/02/24 03:39:38;;;;;;;19.83;12.83;;;;;;;;;;4991496;28;20109;-63
2022/02/24 03:42:04;;;;;;;15.53;12.10;;;;;;;;;;4990665;28;20491;-62
2022/02/24 03:44:30;;;;;;;17.10;12.07;;;;;;;;;;4991552;28;20030;-62
2022/02/24 03:46:56;;;;;;;16.27;11.37;;;;;;;;;;4991926;28;20038;-62
2022/02/24 03:49:22;;;;;;;15.40;11.63;;;;;;;;;;4987628;28;20041;-62
2022/02/24 03:52:08;;;;;;;19.87;12.23;;;;;;;;;;4988346;28;20491;-62
2022/02/24 03:54:34;;;;;;;17.37;12.03;;;;;;;;;;4973503;28;20381;-62
2022/02/24 03:57:00;;;;;;;16.60;11.80;;;;;;;;;;4977838;28;20097;-62
2022/02/24 03:59:26;;;;;;;16.20;12.10;;;;;;;;;;4977531;28;20552;-62
2022/02/24 04:01:52;;;;;;;22.13;13.47;;;;;;;;;;4986087;28;20026;-62
2022/02/24 04:04:18;;;;;;;18.30;12.80;;;;;;;;;;4983796;28;20133;-62
2022/02/24 04:06:44;;;;;;;19.23;12.83;;;;;;;;;;4986244;28;20101;-62
2022/02/24 04:09:10;;;;;;;17.47;13.07;;;;;;;;;;4985414;28;20030;-62
2022/02/24 04:11:36;;;;;;;16.77;13.03;;;;;;;;;;4991667;28;20046;-62
2022/02/24 04:14:02;;;;;;;15.30;12.20;;;;;;;;;;4987909;28;20380;-62
2022/02/24 04:16:28;;;;;;;16.77;11.70;;;;;;;;;;4992054;28;20038;-63
2022/02/24 04:18:54;;;;;;;19.10;13.23;;;;;;;;;;4990574;28;20349;-62
2022/02/24 04:21:20;;;;;;;17.93;13.10;;;;;;;;;;4991597;28;20059;-62
2022/02/24 04:23:46;;;;;;;19.67;13.07;;;;;;;;;;4990401;28;20553;-62
2022/02/24 04:26:12;;;;;;;17.73;13.20;;;;;;;;;;4991140;28;20061;-62
2022/02/24 04:28:38;;;;;;;17.63;13.87;;;;;;;;;;4990178;28;20109;-62
2022/02/24 04:31:04;;;;;;;19.90;14.87;;;;;;;;;;4980445;28;20212;-62
2022/02/24 04:33:30;;;;;;;18.90;14.53;;;;;;;;;;4986708;28;20062;-62
2022/02/24 04:35:56;;;;;;;20.40;15.23;;;;;;;;;;4990179;28;20466;-62
2022/02/24 04:38:22;;;;;;;19.17;14.40;;;;;;;;;;4986465;28;20023;-62
2022/02/24 04:40:48;;;;;;;20.70;15.10;;;;;;;;;;4990565;28;20027;-62
2022/02/24 04:43:14;;;;;;;19.83;14.57;;;;;;;;;;4985667;28;20061;-62
2022/02/24 04:45:40;;;;;;;20.80;15.00;;;;;;;;;;4987103;28;20444;-62
2022/02/24 04:48:07;;;;;;;20.77;14.97;;;;;;;;;;4982660;28;20134;-62
2022/02/24 04:50:34;;;;;;;19.63;14.77;;;;;;;;;;4987066;28;20026;-62
2022/02/24 04:53:00;;;;;;;22.47;14.57;;;;;;;;;;4990657;28;20034;-62
2022/02/24 04:55:26;;;;;;;18.47;14.20;;;;;;;;;;4990014;28;20369;-62
2022/02/24 04:57:52;;;;;;;18.73;13.77;;;;;;;;;;4991492;28;20030;-63
2022/02/24 05:00:18;;;;;;;19.57;13.93;;;;;;;;;;4990054;28;20042;-63
2022/02/24 05:02:44;;;;;;;21.17;14.20;;;;;;;;;;4991053;28;20030;-63
2022/02/24 05:05:10;;;;;;;18.80;14.37;;;;;;;;;;4983891;28;20050;-61
2022/02/24 05:07:36;;;;;;;20.70;14.47;;;;;;;;;;4990970;28;20102;-60
2022/02/24 05:10:03;;;;;;;23.67;14.47;;;;;;;;;;4986140;28;20152;-62
2022/02/24 05:12:29;;;;;;;18.33;13.57;;;;;;;;;;4985176;28;20042;-62
2022/02/24 05:14:55;;;;;;;18.43;12.37;;;;;;;;;;4979705;28;20027;-62
2022/02/24 05:17:21;;;;;;;19.20;13.27;;;;;;;;;;5037028;28;20031;-62
2022/02/24 05:19:47;;;;;;;21.30;12.83;;;;;;;;;;4986802;28;20026;-62
2022/02/24 05:22:13;;;;;;;15.40;11.93;;;;;;;;;;4991230;28;20037;-62
2022/02/24 05:24:39;;;;;;;17.13;12.80;;;;;;;;;;4989977;28;20403;-61
2022/02/24 05:27:05;;;;;;;15.17;11.80;;;;;;;;;;4991128;28;20022;-62
2022/02/24 05:29:31;;;;;;;14.10;11.07;;;;;;;;;;4990076;28;20026;-62
2022/02/24 05:31:57;;;;;;;17.70;11.87;;;;;;;;;;4991050;28;20034;-62
2022/02/24 05:34:23;;;;;;;16.23;12.63;;;;;;;;;;4990103;28;20500;-61
2022/02/24 05:36:49;;;;;;;13.97;11.53;;;;;;;;;;4972408;28;20034;-61
2022/02/24 05:39:15;;;;;;;15.20;11.70;;;;;;;;;;4979406;28;20076;-62
2022/02/24 05:41:41;;;;;;;14.30;11.47;;;;;;;;;;4991147;28;20026;-62
2022/02/24 05:44:07;;;;;;;19.23;12.03;;;;;;;;;;4988090;28;20041;-61
2022/02/24 05:46:33;;;;;;;16.60;11.50;;;;;;;;;;4990857;28;20469;-61
2022/02/24 05:49:00;;;;;;;15.70;11.30;;;;;;;;;;4985089;28;20042;-61
2022/02/24 05:51:26;;;;;;;16.70;11.17;;;;;;;;;;4970066;28;20038;-61
2022/02/24 05:53:52;;;;;;;14.13;10.47;;;;;;;;;;4971282;28;20027;-61
2022/02/24 05:56:18;;;;;;;16.67;11.77;;;;;;;;;;4970158;28;20135;-62
2022/02/24 05:58:44;;;;;;;15.43;11.40;;;;;;;;;;4971149;28;20037;-61
2022/02/24 06:01:10;;;;;;;17.07;11.90;;;;;;;;;;4974928;28;20027;-61
2022/02/24 06:03:36;;;;;;;15.57;11.47;;;;;;;;;;4973290;28;20133;-62
2022/02/24 06:06:02;;;;;;;14.47;11.60;;;;;;;;;;4974632;28;20503;-62
2022/02/24 06:08:28;;;;;;;18.07;12.13;;;;;;;;;;4974679;28;20488;-62
2022/02/24 06:10:55;;;;;;;17.63;11.57;;;;;;;;;;4979967;28;20480;-62
2022/02/24 06:13:21;;;;;;;15.93;12.37;;;;;;;;;;4994196;28;20360;-62
2022/02/24 06:15:47;;;;;;;18.43;12.90;;;;;;;;;;4974451;28;20026;-62
2022/02/24 06:18:18;;;;;;;19.10;13.63;;;;;;;;;;4973385;28;20043;-62
2022/02/24 06:20:44;;;;;;;21.10;14.20;;;;;;;;;;4992432;28;20018;-62
2022/02/24 06:23:10;;;;;;;24.07;14.97;;;;;;;;;;4993999;28;20100;-62
2022/02/24 06:25:36;;;;;;;20.50;14.50;;;;;;;;;;4993106;28;20144;-62
2022/02/24 06:28:02;;;;;;;19.93;16.03;;;;;;;;;;4993734;28;20056;-62
2022/02/24 06:30:28;;;;;;;21.93;15.97;;;;;;;;;;4992681;28;20026;-62
2022/02/24 06:32:54;;;;;;;19.03;14.90;;;;;;;;;;4993998;28;20030;-62
2022/02/24 06:35:20;;;;;;;19.27;14.37;;;;;;;;;;4992311;28;20403;-62
2022/02/24 06:37:46;;;;;;;27.60;15.40;;;;;;;;;;4991672;28;20041;-63
2022/02/24 06:40:13;;;;;;;21.10;15.43;;;;;;;;;;4979572;28;20031;-62
2022/02/24 06:42:40;;;;;;;21.13;14.97;;;;;;;;;;4974101;28;20062;-62
2022/02/24 06:45:06;;;;;;;25.40;15.77;;;;;;;;;;4978439;28;20037;-62
2022/02/24 06:47:32;;;;;;;22.90;15.00;;;;;;;;;;4993397;28;20380;-62
2022/02/24 06:49:58;;;;;;;20.60;13.53;;;;;;;;;;4992340;28;20476;-62
2022/02/24 06:52:24;;;;;;;17.53;13.10;;;;;;;;;;4993371;28;20042;-62
2022/02/24 06:54:50;;;;;;;22.47;12.60;;;;;;;;;;4982648;28;20102;-62
2022/02/24 06:57:16;;;;;;;19.40;13.53;;;;;;;;;;4974304;28;20066;-62
2022/02/24 06:59:42;;;;;;;23.30;13.30;;;;;;;;;;4979715;28;20061;-62
2022/02/24 07:02:09;;;;;;;21.40;14.80;;;;;;;;;;4993296;28;20453;-62
2022/02/24 07:04:37;;;;;;;21.13;15.13;;;;;;;;;;4991453;28;20061;-62
2022/02/24 07:07:03;;;;;;;21.67;14.80;;;;;;;;;;4982752;28;20096;-62
2022/02/24 07:09:31;;;;;;;23.40;14.90;;;;;;;;;;4980354;28;20091;-62
2022/02/24 07:11:57;;;;;;;20.77;14.77;;;;;;;;;;4992845;28;20041;-62
2022/02/24 07:14:23;;;;;;;20.80;14.50;;;;;;;;;;4985051;28;20030;-62
2022/02/24 07:16:49;;;;;;;25.37;15.93;;;;;;;;;;4973403;28;20027;-63
2022/02/24 07:19:15;;;;;;;23.40;14.90;;;;;;;;;;4985949;28;20023;-62
2022/02/24 07:21:41;;;;;;;23.63;16.27;;;;;;;;;;4977696;28;20477;-62
2022/02/24 07:24:08;;;;;;;23.27;15.33;;;;;;;;;;4975420;28;20537;-62
2022/02/24 07:26:34;;;;;;;23.57;15.63;;;;;;;;;;4992585;28;20034;-62
2022/02/24 07:29:00;;;;;;;26.63;15.30;;;;;;;;;;4990575;28;20065;-62
2022/02/24 07:31:26;;;;;;;24.13;15.40;;;;;;;;;;4992413;28;20076;-62
2022/02/24 07:33:52;;;;;;;18.33;14.27;;;;;;;;;;4991451;28;20033;-62
2022/02/24 07:36:18;;;;;;;21.07;15.20;;;;;;;;;;4985214;28;20400;-62
2022/02/24 07:38:44;;;;;;;21.07;13.83;;;;;;;;;;4972701;28;20026;-62
2022/02/24 07:41:11;;;;;;;21.90;13.63;;;;;;;;;;4980810;28;20476;-62
2022/02/24 07:43:37;;;;;;;17.50;13.20;;;;;;;;;;4973243;28;20428;-62
2022/02/24 07:46:03;;;;;;;22.90;14.90;;;;;;;;;;4990095;28;20491;-62
2022/02/24 07:48:29;;;;;;;17.23;14.23;;;;;;;;;;4992384;28;20038;-62
2022/02/24 07:50:56;;;;;;;21.60;13.50;;;;;;;;;;4990621;28;20042;-62
2022/02/24 07:53:24;;;;;;;19.97;14.07;;;;;;;;;;4992802;28;20396;-62
2022/02/24 07:55:50;;;;;;;18.27;13.77;;;;;;;;;;4990807;28;20109;-62
2022/02/24 07:58:17;;;;;;;19.60;14.13;;;;;;;;;;4992452;28;20058;-62
2022/02/24 08:00:45;;;;;;;20.20;14.37;;;;;;;;;;4988869;28;20026;-62
2022/02/24 08:03:11;;;;;;;22.07;14.80;;;;;;;;;;4991680;28;20033;-62
2022/02/24 08:05:37;;;;;;;22.93;14.40;;;;;;;;;;4982011;28;20050;-62
2022/02/24 08:08:03;;;;;;;26.63;14.47;;;;;;;;;;4982331;28;20027;-62
2022/02/24 08:10:30;;;;;;;22.40;14.97;;;;;;;;;;4983119;28;20552;-61
2022/02/24 08:12:56;;;;;;;22.10;14.57;;;;;;;;;;4982585;28;20633;-62
2022/02/24 08:15:23;;;;;;;20.70;15.13;;;;;;;;;;4985422;28;20026;-62
2022/02/24 08:17:50;;;;;;;19.27;15.03;;;;;;;;;;4990362;28;20026;-62
2022/02/24 08:20:16;;;;;;;22.57;14.47;;;;;;;;;;4984880;28;20034;-61
2022/02/24 08:22:46;;;;;;;28.30;15.23;;;;;;;;;;5002082;28;20030;-62
2022/02/24 08:25:13;;;;;;;21.50;14.83;;;;;;;;;;4985297;28;20033;-62
2022/02/24 08:27:39;;;;;;;21.97;14.97;;;;;;;;;;4989670;28;20079;-62
2022/02/24 08:30:07;;;;;;;20.13;14.40;;;;;;;;;;4981480;28;20030;-62
2022/02/24 08:32:33;;;;;;;22.53;15.17;;;;;;;;;;4980226;28;20492;-62
2022/02/24 08:35:01;;;;;;;20.80;15.20;;;;;;;;;;4985418;28;20106;-62
2022/02/24 08:37:27;;;;;;;20.93;14.00;;;;;;;;;;4972713;28;20031;-62
2022/02/24 08:39:53;;;;;;;17.77;13.33;;;;;;;;;;4976321;28;20031;-62
2022/02/24 08:42:22;;;;;;;21.37;15.00;;;;;;;;;;4985833;28;20121;-62
2022/02/24 08:44:49;;;;;;;21.73;15.53;;;;;;;;;;4990820;28;20022;-62
2022/02/24 08:47:15;;;;;;;20.80;14.80;;;;;;;;;;4982369;28;20039;-62
2022/02/24 08:49:41;;;;;;;21.30;15.10;;;;;;;;;;4971451;28;20026;-62
2022/02/24 08:52:07;;;;;;;20.43;14.37;;;;;;;;;;4978551;28;20141;-62
2022/02/24 08:54:33;;;;;;;18.00;14.60;;;;;;;;;;4971349;28;20030;-62
2022/02/24 08:57:03;;;;;;;24.20;14.80;;;;;;;;;;4978250;28;20513;-62
2022/02/24 08:59:29;;;;;;;21.63;14.87;;;;;;;;;;4984292;28;20037;-62
2022/02/24 09:01:55;;;;;;;23.40;15.63;;;;;;;;;;4988293;28;20076;-62
2022/02/24 09:04:21;;;;;;;21.90;15.40;;;;;;;;;;4973625;28;20168;-61
2022/02/24 09:06:47;;;;;;;16.87;14.63;;;;;;;;;;4971316;28;20031;-61
2022/02/24 09:09:13;;;;;;;22.03;15.57;;;;;;;;;;4971667;28;20362;-61
2022/02/24 09:11:39;;;;;;;21.60;14.57;;;;;;;;;;4979641;28;20126;-61
2022/02/24 09:14:06;;;;;;;19.47;14.93;;;;;;;;;;4989136;28;20027;-62
2022/02/24 09:16:32;;;;;;;21.43;15.33;;;;;;;;;;4977936;28;20122;-61
2022/02/24 09:18:59;;;;;;;18.75;14.93;;;;;;;;;;4979586;28;20117;-62
2022/02/24 09:21:25;;;;;;;23.83;14.40;;;;;;;;;;4982907;28;20035;-62
2022/02/24 09:23:51;;;;;;;21.20;13.93;;;;;;;;;;4971101;28;20031;-61
2022/02/24 09:26:17;;;;;;;22.88;14.52;;;;;;;;;;4978418;28;20122;-62
2022/02/24 09:28:43;;;;;;;19.23;14.82;;;;;;;;;;4972158;28;20027;-61
2022/02/24 09:31:09;;;;;;;17.63;14.37;;;;;;;;;;4981977;28;20120;-62
2022/02/24 09:33:36;;;;;;;18.40;14.37;;;;;;;;;;4986239;28;20056;-61
2022/02/24 09:36:02;;;;;;;18.97;13.80;;;;;;;;;;4983525;28;20103;-61
2022/02/24 09:38:28;;;;;;;17.55;14.07;;;;;;;;;;4979766;28;20476;-61
2022/02/24 09:40:56;;;;;;;15.18;12.52;;;;;;;;;;4973379;28;20054;-61
2022/02/24 09:43:26;;;;;;;21.03;13.57;;;;;;;;;;4973837;28;20031;-61
2022/02/24 09:45:52;;;;;;;22.33;14.85;;;;;;;;;;4971596;28;20042;-59
2022/02/24 09:48:20;;;;;;;16.73;12.85;;;;;;;;;;4986217;28;20026;-59
2022/02/24 09:50:50;;;;;;;17.92;12.05;;;;;;;;;;4989170;28;20066;-60
2022/02/24 09:53:16;;;;;;;16.95;13.07;;;;;;;;;;4974776;28;20034;-79
2022/02/24 09:55:42;;;;;;;16.23;12.82;;;;;;;;;;4985344;28;20023;-77
2022/02/24 09:58:09;;;;;;;26.83;16.58;;;;;;;;;;4975781;28;20034;-79
2022/02/24 10:00:35;;;;;;;19.85;12.57;;;;;;;;;;4972031;28;20104;-78
2022/02/24 10:03:01;;;;;;;20.75;12.48;;;;;;;;;;4975086;28;20042;-58
2022/02/24 10:05:28;;;;;;;16.35;11.23;;;;;;;;;;4973825;28;20042;-58
2022/02/24 10:07:55;;;;;;;18.70;11.65;;;;;;;;;;4974866;28;20053;-71
2022/02/24 10:10:24;;;;;;;20.13;13.85;;;;;;;;;;4979708;28;20039;-71
2022/02/24 10:13:08;;;;;;;18.27;13.05;;;;;;;;;;4976115;28;20439;-72
2022/02/24 10:15:35;;;;;;;20.70;14.47;;;;;;;;;;4970709;28;20023;-69
2022/02/24 10:18:07;;;;;;;16.08;12.85;;;;;;;;;;4974344;28;20598;-70
2022/02/24 10:20:45;;;;;;;18.73;13.82;;;;;;;;;;4972929;28;20486;-69
2022/02/24 10:23:12;;;;;;;18.60;13.57;;;;;;;;;;4970398;28;20018;-69
2022/02/24 10:25:43;;;;;;;19.70;14.05;;;;;;;;;;4972458;28;20037;-69
2022/02/24 10:28:27;;;;;;;18.13;13.57;;;;;;;;;;4980341;28;20022;-71
2022/02/24 10:30:53;;;;;;;22.17;15.18;;;;;;;;;;4981280;28;20442;-69
2022/02/24 10:33:24;;;;;;;18.60;13.98;;;;;;;;;;4976861;28;20053;-82
2022/02/24 10:35:52;;;;;;;25.17;18.08;;;;;;;;;;4985674;28;20026;-72
2022/02/24 10:38:18;;;;;;;23.27;16.45;;;;;;;;;;4977020;28;20054;-69
2022/02/24 10:40:48;;;;;;;25.65;16.67;;;;;;;;;;4969131;28;20485;-67
2022/02/24 10:43:14;;;;;;;25.33;15.73;;;;;;;;;;4972577;28;20038;-68
2022/02/24 10:45:41;;;;;;;21.40;15.05;;;;;;;;;;4977098;28;20031;-68
2022/02/24 10:48:09;;;;;;;26.35;16.42;;;;;;;;;;4988001;28;20034;-68
2022/02/24 10:50:55;;;;;;;21.15;16.20;;;;;;;;;;4990566;28;20105;-68
2022/02/24 10:53:26;;;;;;;29.73;19.27;;;;;;;;;;4991483;28;20046;-68
2022/02/24 10:55:52;;;;;;;22.30;16.27;;;;;;;;;;4991761;28;20023;-67
2022/02/24 10:58:18;;;;;;;20.35;15.13;;;;;;;;;;4981504;28;20502;-67
2022/02/24 11:00:44;;;;;;;22.20;16.10;;;;;;;;;;4973500;28;20088;-67
2022/02/24 11:03:11;;;;;;;21.98;15.82;;;;;;;;;;4973099;28;20481;-67
2022/02/24 11:05:38;;;;;;;23.65;15.65;;;;;;;;;;4972870;28;20039;-68
2022/02/24 11:08:05;;;;;;;26.98;15.70;;;;;;;;;;4979721;28;20028;-68
2022/02/24 11:10:31;;;;;;;20.92;16.67;;;;;;;;;;4973081;28;20121;-68
2022/02/24 11:12:59;;;;;;;22.50;15.13;;;;;;;;;;4985047;28;20109;-67
2022/02/24 11:15:28;;;;;;;23.60;16.23;;;;;;;;;;4990331;28;20109;-64
2022/02/24 11:17:57;;;;;;;22.08;15.13;;;;;;;;;;4984355;28;20072;-63
2022/02/24 11:20:24;;;;;;;24.95;15.25;;;;;;;;;;4981852;28;20038;-63
2022/02/24 11:22:52;;;;;;;24.58;13.63;;;;;;;;;;4982678;28;20034;-63
2022/02/24 11:25:20;;;;;;;20.63;14.02;;;;;;;;;;4991007;28;20125;-63
2022/02/24 11:27:53;;;;;;;20.95;14.38;;;;;;;;;;4978121;28;20412;-64
2022/02/24 11:30:28;;;;;;;17.90;13.75;;;;;;;;;;4976066;28;20030;-63
2022/02/24 11:32:55;;;;;;;19.23;14.10;;;;;;;;;;4981622;28;20455;-63
2022/02/24 11:35:22;;;;;;;19.42;15.00;;;;;;;;;;4976529;28;20060;-64
2022/02/24 11:38:15;;;;;;;22.40;16.00;;;;;;;;;;4978222;28;20050;-68
2022/02/24 11:40:42;;;;;;;23.13;16.20;;;;;;;;;;4973770;28;20113;-78
2022/02/24 11:43:31;;;;;;;24.98;16.27;;;;;;;;;;4984446;28;20034;-72
2022/02/24 11:45:57;;;;;;;24.65;17.25;;;;;;;;;;4984716;28;20122;-74
2022/02/24 11:48:44;;;;;;;27.45;19.17;;;;;;;;;;4975362;28;20031;-74
2022/02/24 11:51:18;;;;;;;21.60;16.60;;;;;;;;;;4980532;28;20475;-74
2022/02/24 11:53:45;;;;;;;27.23;17.92;;;;;;;;;;4978696;28;20164;-73
2022/02/24 11:56:15;;;;;;;22.48;16.52;;;;;;;;;;4972726;28;20062;-73
2022/02/24 11:59:02;;;;;;;24.80;18.17;;;;;;;;;;4978111;28;20062;-74
2022/02/24 12:01:42;;;;;;;26.70;20.52;;;;;;;;;;4972156;28;20062;-74
2022/02/24 12:04:17;;;;;;;24.52;18.63;;;;;;;;;;4979827;28;20079;-74
2022/02/24 12:07:02;;;;;;;24.38;19.30;;;;;;;;;;4974092;28;20054;-75
2022/02/24 12:09:32;;;;;;;22.02;17.40;;;;;;;;;;4972883;28;20030;-74
2022/02/24 12:12:19;;;;;;;25.20;17.70;;;;;;;;;;4973334;28;20561;-76
2022/02/24 12:14:46;;;;;;;24.38;17.98;;;;;;;;;;4983572;28;20022;-74
2022/02/24 12:17:13;;;;;;;27.73;19.15;;;;;;;;;;4983180;28;20382;-73
2022/02/24 12:19:44;;;;;;;29.05;22.10;;;;;;;;;;4985675;28;20050;-74
2022/02/24 12:22:30;;;;;;;26.90;21.25;;;;;;;;;;4982400;28;20065;-75
2022/02/24 12:25:12;;;;;;;31.85;23.67;;;;;;;;;;4979509;28;20080;-74
2022/02/24 12:27:56;;;;;;;28.52;20.38;;;;;;;;;;4978342;28;20504;-74
2022/02/24 12:30:25;;;;;;;28.80;20.13;;;;;;;;;;4983856;28;20052;-74
2022/02/24 12:32:54;;;;;;;32.28;21.77;;;;;;;;;;4976537;28;20080;-72
2022/02/24 12:35:22;;;;;;;26.27;19.08;;;;;;;;;;4981294;28;20030;-74
2022/02/24 12:37:50;;;;;;;26.55;20.63;;;;;;;;;;4980314;28;20500;-74
2022/02/24 12:40:25;;;;;;;25.73;19.27;;;;;;;;;;4979885;28;20134;-75
2022/02/24 12:42:51;;;;;;;26.50;20.40;;;;;;;;;;4976492;28;20029;-74
2022/02/24 12:45:21;;;;;;;29.67;20.27;;;;;;;;;;4988673;28;20488;-74
2022/02/24 12:47:55;;;;;;;28.55;19.70;;;;;;;;;;4981213;28;20066;-75
2022/02/24 12:50:32;;;;;;;25.73;18.48;;;;;;;;;;4980647;28;20038;-74
2022/02/24 12:53:24;;;;;;;27.70;22.10;;;;;;;;;;4979896;28;20095;-74
2022/02/24 12:55:54;;;;;;;27.88;18.52;;;;;;;;;;4980200;28;20073;-75
2022/02/24 12:58:21;;;;;;;33.42;21.25;;;;;;;;;;4981118;28;20030;-75
2022/02/24 13:00:56;;;;;;;25.75;18.83;;;;;;;;;;4990833;28;20034;-75
2022/02/24 13:03:25;;;;;;;26.75;19.70;;;;;;;;;;4986164;28;20038;-74
2022/02/24 13:05:51;;;;;;;27.00;18.33;;;;;;;;;;4971717;28;20485;-75
2022/02/24 13:11:03;;;;;;;25.45;18.75;;;;;;;;;;4989117;28;20069;-75
2022/02/24 13:13:29;;;;;;;25.77;18.42;;;;;;;;;;4984025;28;20041;-74
2022/02/24 13:15:59;;;;;;;25.23;18.48;;;;;;;;;;4970716;28;20030;-74
2022/02/24 13:18:25;;;;;;;28.02;19.95;;;;;;;;;;4974490;28;20038;-77
2022/02/24 13:20:58;;;;;;;30.15;20.45;;;;;;;;;;4979306;28;20034;-77
2022/02/24 13:23:24;;;;;;;27.48;20.88;;;;;;;;;;4984367;28;20031;-75
2022/02/24 13:25:54;;;;;;;29.83;19.88;;;;;;;;;;4978754;28;20023;-76
2022/02/24 13:28:20;;;;;;;37.75;22.55;;;;;;;;;;4979424;28;20022;-76
2022/02/24 13:30:46;;;;;;;31.30;21.08;;;;;;;;;;4983213;28;20387;-77
2022/02/24 13:33:13;;;;;;;27.52;20.38;;;;;;;;;;4985118;28;20022;-75
2022/02/24 13:35:42;;;;;;;27.13;19.98;;;;;;;;;;4999538;28;20027;-76
2022/02/24 13:38:11;;;;;;;26.58;20.38;;;;;;;;;;4980506;28;20023;-77
2022/02/24 13:40:44;;;;;;;27.58;20.65;;;;;;;;;;5011132;28;20498;-77
2022/02/24 13:43:11;;;;;;;28.05;20.88;;;;;;;;;;4974773;28;20030;-77
2022/02/24 13:45:37;;;;;;;26.20;20.20;;;;;;;;;;4972608;28;20101;-77
2022/02/24 13:48:13;;;;;;;28.65;20.58;;;;;;;;;;4983717;28;20046;-77
2022/02/24 13:50:43;;;;;;;29.80;21.15;;;;;;;;;;4988429;28;20129;-77
2022/02/24 13:53:38;;;;;;;29.50;21.58;;;;;;;;;;4984145;28;20041;-77
2022/02/24 13:56:09;;;;;;;30.50;21.65;;;;;;;;;;4982300;28;20038;-77
2022/02/24 13:58:36;;;;;;;29.10;21.83;;;;;;;;;;4971042;28;20027;-76
2022/02/24 14:01:08;;;;;;;33.38;23.08;;;;;;;;;;4970403;28;20088;-77
2022/02/24 14:03:42;;;;;;;25.35;21.23;;;;;;;;;;4978408;28;20058;-76
2022/02/24 14:06:10;;;;;;;31.33;22.08;;;;;;;;;;4979372;28;20019;-77
2022/02/24 14:08:38;;;;;;;31.05;21.38;;;;;;;;;;4974193;28;20030;-76
2022/02/24 14:11:05;;;;;;;31.98;22.40;;;;;;;;;;4990588;28;20027;-76
2022/02/24 14:13:31;;;;;;;36.63;22.45;;;;;;;;;;4978249;28;20035;-77
2022/02/24 14:15:58;;;;;;;30.05;22.60;;;;;;;;;;4970774;28;20033;-76
2022/02/24 14:18:24;;;;;;;36.25;23.02;;;;;;;;;;4977641;28;20026;-75
2022/02/24 14:20:51;;;;;;;31.42;23.30;;;;;;;;;;4977578;28;20030;-75
2022/02/24 14:23:17;;;;;;;31.48;23.00;;;;;;;;;;4990604;28;20102;-75